sensor_id;sensor_type;location;lat;lon;timestamp;pressure;altitude;pressure_sealevel;temperature;humidity
49459;BME280;35354;51.296;16.924;2023-02-22T00:00:38;99645.44;;;6.15;86.06
49459;BME280;35354;51.296;16.924;2023-02-22T00:05:39;99644.16;;;5.99;86.95
49459;BME280;35354;51.296;16.924;2023-02-22T00:08:06;99670.03;;;5.97;87.58
49459;BME280;35354;51.296;16.924;2023-02-22T00:10:36;99658.66;;;5.72;87.74
49459;BME280;35354;51.296;16.924;2023-02-22T00:13:03;99634.91;;;5.58;87.82
49459;BME280;35354;51.296;16.924;2023-02-22T00:15:29;99666.44;;;5.70;88.32
49459;BME280;35354;51.296;16.924;2023-02-22T00:17:55;99675.00;;;5.72;87.93
49459;BME280;35354;51.296;16.924;2023-02-22T00:20:21;99671.75;;;5.64;88.56
49459;BME280;35354;51.296;16.924;2023-02-22T00:22:48;99671.00;;;5.61;88.70
49459;BME280;35354;51.296;16.924;2023-02-22T00:25:17;99650.88;;;5.39;88.47
49459;BME280;35354;51.296;16.924;2023-02-22T00:27:47;99651.03;;;5.33;88.70
49459;BME280;35354;51.296;16.924;2023-02-22T00:30:18;99653.75;;;5.29;89.17
49459;BME280;35354;51.296;16.924;2023-02-22T00:32:45;99667.63;;;5.24;89.51
49459;BME280;35354;51.296;16.924;2023-02-22T00:35:12;99683.94;;;5.25;89.95
49459;BME280;35354;51.296;16.924;2023-02-22T00:37:37;99684.03;;;5.22;89.84
49459;BME280;35354;51.296;16.924;2023-02-22T00:40:07;99698.66;;;5.21;90.30
49459;BME280;35354;51.296;16.924;2023-02-22T00:42:33;99664.66;;;5.06;90.16
49459;BME280;35354;51.296;16.924;2023-02-22T00:44:58;99690.19;;;5.16;90.35
49459;BME280;35354;51.296;16.924;2023-02-22T00:47:23;99684.22;;;5.14;90.33
49459;BME280;35354;51.296;16.924;2023-02-22T00:49:50;99683.50;;;5.08;90.20
49459;BME280;35354;51.296;16.924;2023-02-22T00:52:15;99688.78;;;5.03;90.61
49459;BME280;35354;51.296;16.924;2023-02-22T00:54:41;99688.34;;;4.86;90.45
49459;BME280;35354;51.296;16.924;2023-02-22T00:57:06;99661.97;;;4.71;90.47
49459;BME280;35354;51.296;16.924;2023-02-22T00:59:32;99671.44;;;4.72;90.66
49459;BME280;35354;51.296;16.924;2023-02-22T01:01:57;99695.22;;;4.85;91.28
49459;BME280;35354;51.296;16.924;2023-02-22T01:04:22;99664.75;;;4.62;91.35
49459;BME280;35354;51.296;16.924;2023-02-22T01:06:48;99684.25;;;4.75;91.30
49459;BME280;35354;51.296;16.924;2023-02-22T01:09:13;99695.34;;;4.81;91.47
49459;BME280;35354;51.296;16.924;2023-02-22T01:11:38;99649.50;;;4.53;91.39
49459;BME280;35354;51.296;16.924;2023-02-22T01:14:05;99704.03;;;4.75;91.62
49459;BME280;35354;51.296;16.924;2023-02-22T01:16:34;99681.03;;;4.66;91.61
49459;BME280;35354;51.296;16.924;2023-02-22T01:18:59;99675.13;;;4.61;91.79
49459;BME280;35354;51.296;16.924;2023-02-22T01:21:25;99689.66;;;4.63;92.23
49459;BME280;35354;51.296;16.924;2023-02-22T01:23:50;99703.44;;;4.64;92.57
49459;BME280;35354;51.296;16.924;2023-02-22T01:26:16;99698.41;;;4.58;93.15
49459;BME280;35354;51.296;16.924;2023-02-22T01:28:41;99694.19;;;4.54;93.23
49459;BME280;35354;51.296;16.924;2023-02-22T01:31:06;99676.34;;;4.44;93.06
49459;BME280;35354;51.296;16.924;2023-02-22T01:33:32;99696.59;;;4.61;92.82
49459;BME280;35354;51.296;16.924;2023-02-22T01:35:58;99684.66;;;4.57;92.95
49459;BME280;35354;51.296;16.924;2023-02-22T01:38:25;99700.03;;;4.62;92.73
49459;BME280;35354;51.296;16.924;2023-02-22T01:40:50;99697.50;;;4.60;92.70
49459;BME280;35354;51.296;16.924;2023-02-22T01:43:23;99707.03;;;4.57;92.35
49459;BME280;35354;51.296;16.924;2023-02-22T01:48:25;99681.69;;;4.34;93.43
49459;BME280;35354;51.296;16.924;2023-02-22T01:53:21;99687.41;;;4.49;93.69
49459;BME280;35354;51.296;16.924;2023-02-22T01:55:48;99664.53;;;4.34;93.49
49459;BME280;35354;51.296;16.924;2023-02-22T01:58:15;99686.56;;;4.49;93.10
49459;BME280;35354;51.296;16.924;2023-02-22T02:00:42;99669.50;;;4.43;93.01
49459;BME280;35354;51.296;16.924;2023-02-22T02:03:20;99672.06;;;4.43;94.28
49459;BME280;35354;51.296;16.924;2023-02-22T02:05:49;99652.44;;;4.36;93.98
49459;BME280;35354;51.296;16.924;2023-02-22T02:08:35;99662.50;;;4.48;93.72
49459;BME280;35354;51.296;16.924;2023-02-22T02:11:05;99662.34;;;4.56;93.49
49459;BME280;35354;51.296;16.924;2023-02-22T02:13:31;99676.53;;;4.74;93.20
49459;BME280;35354;51.296;16.924;2023-02-22T02:15:57;99686.81;;;4.75;92.85
49459;BME280;35354;51.296;16.924;2023-02-22T02:18:23;99668.13;;;4.66;92.82
49459;BME280;35354;51.296;16.924;2023-02-22T02:35:14;99690.03;;;4.87;93.02
49459;BME280;35354;51.296;16.924;2023-02-22T02:40:21;99681.28;;;4.92;92.91
49459;BME280;35354;51.296;16.924;2023-02-22T02:42:54;99678.75;;;4.91;93.06
49459;BME280;35354;51.296;16.924;2023-02-22T02:45:48;99687.28;;;4.94;93.07
49459;BME280;35354;51.296;16.924;2023-02-22T02:48:20;99664.28;;;4.84;93.22
49459;BME280;35354;51.296;16.924;2023-02-22T02:50:47;99672.78;;;4.89;92.78
49459;BME280;35354;51.296;16.924;2023-02-22T02:53:18;99669.38;;;4.87;93.07
49459;BME280;35354;51.296;16.924;2023-02-22T02:55:47;99689.75;;;4.99;93.33
49459;BME280;35354;51.296;16.924;2023-02-22T02:58:22;99678.06;;;4.83;93.63
49459;BME280;35354;51.296;16.924;2023-02-22T03:00:51;99669.44;;;4.84;93.86
49459;BME280;35354;51.296;16.924;2023-02-22T03:08:44;99672.75;;;4.90;94.46
49459;BME280;35354;51.296;16.924;2023-02-22T03:11:20;99686.38;;;4.95;94.13
49459;BME280;35354;51.296;16.924;2023-02-22T03:14:10;99694.16;;;4.94;94.07
49459;BME280;35354;51.296;16.924;2023-02-22T03:17:03;99684.81;;;4.88;94.38
49459;BME280;35354;51.296;16.924;2023-02-22T03:19:34;99687.38;;;4.90;94.13
49459;BME280;35354;51.296;16.924;2023-02-22T03:22:10;99673.06;;;4.75;94.86
49459;BME280;35354;51.296;16.924;2023-02-22T03:27:26;99685.97;;;4.75;95.45
49459;BME280;35354;51.296;16.924;2023-02-22T03:29:57;99674.00;;;4.72;95.63
49459;BME280;35354;51.296;16.924;2023-02-22T03:32:26;99691.28;;;4.69;95.12
49459;BME280;35354;51.296;16.924;2023-02-22T03:35:00;99687.78;;;4.71;95.22
49459;BME280;35354;51.296;16.924;2023-02-22T03:37:31;99662.34;;;4.56;95.03
49459;BME280;35354;51.296;16.924;2023-02-22T03:39:59;99689.56;;;4.69;94.86
49459;BME280;35354;51.296;16.924;2023-02-22T03:42:28;99644.59;;;4.41;94.87
49459;BME280;35354;51.296;16.924;2023-02-22T03:44:57;99684.56;;;4.62;95.01
49459;BME280;35354;51.296;16.924;2023-02-22T03:47:32;99672.72;;;4.53;95.17
49459;BME280;35354;51.296;16.924;2023-02-22T03:50:05;99694.94;;;4.59;95.19
49459;BME280;35354;51.296;16.924;2023-02-22T03:52:33;99687.41;;;4.49;95.19
49459;BME280;35354;51.296;16.924;2023-02-22T03:55:00;99690.81;;;4.50;95.20
49459;BME280;35354;51.296;16.924;2023-02-22T03:57:32;99687.59;;;4.40;95.62
49459;BME280;35354;51.296;16.924;2023-02-22T04:00:00;99678.38;;;4.29;95.71
49459;BME280;35354;51.296;16.924;2023-02-22T04:02:25;99673.38;;;4.21;95.95
49459;BME280;35354;51.296;16.924;2023-02-22T04:04:50;99662.34;;;4.14;95.78
49459;BME280;35354;51.296;16.924;2023-02-22T04:07:16;99666.66;;;4.14;95.69
49459;BME280;35354;51.296;16.924;2023-02-22T04:09:41;99691.47;;;4.19;96.27
49459;BME280;35354;51.296;16.924;2023-02-22T04:12:07;99673.75;;;4.03;95.88
49459;BME280;35354;51.296;16.924;2023-02-22T04:14:32;99674.78;;;3.94;95.97
49459;BME280;35354;51.296;16.924;2023-02-22T04:16:58;99682.50;;;3.94;96.19
49459;BME280;35354;51.296;16.924;2023-02-22T04:19:23;99696.19;;;3.96;96.28
49459;BME280;35354;51.296;16.924;2023-02-22T04:21:48;99696.19;;;3.96;96.26
49459;BME280;35354;51.296;16.924;2023-02-22T04:24:14;99680.25;;;3.77;96.19
49459;BME280;35354;51.296;16.924;2023-02-22T04:26:39;99693.00;;;3.85;96.02
49459;BME280;35354;51.296;16.924;2023-02-22T04:29:05;99695.56;;;3.83;96.12
49459;BME280;35354;51.296;16.924;2023-02-22T04:31:30;99689.72;;;3.77;96.04
49459;BME280;35354;51.296;16.924;2023-02-22T04:33:57;99687.09;;;3.78;95.89
49459;BME280;35354;51.296;16.924;2023-02-22T04:36:23;99691.44;;;3.76;96.18
49459;BME280;35354;51.296;16.924;2023-02-22T04:38:48;99667.63;;;3.62;96.13
49459;BME280;35354;51.296;16.924;2023-02-22T04:41:13;99694.94;;;3.70;96.15
49459;BME280;35354;51.296;16.924;2023-02-22T04:43:40;99679.72;;;3.60;96.59
49459;BME280;35354;51.296;16.924;2023-02-22T04:46:06;99692.59;;;3.60;96.81
49459;BME280;35354;51.296;16.924;2023-02-22T04:48:31;99666.25;;;3.44;96.34
49459;BME280;35354;51.296;16.924;2023-02-22T04:50:56;99673.97;;;3.44;96.35
49459;BME280;35354;51.296;16.924;2023-02-22T04:53:21;99691.78;;;3.56;96.14
49459;BME280;35354;51.296;16.924;2023-02-22T04:55:47;99667.16;;;3.40;96.28
49459;BME280;35354;51.296;16.924;2023-02-22T04:58:12;99693.56;;;3.53;96.59
49459;BME280;35354;51.296;16.924;2023-02-22T05:00:37;99646.78;;;3.28;96.55
49459;BME280;35354;51.296;16.924;2023-02-22T05:03:03;99668.97;;;3.35;96.21
49459;BME280;35354;51.296;16.924;2023-02-22T05:05:28;99666.44;;;3.33;96.03
49459;BME280;35354;51.296;16.924;2023-02-22T05:07:54;99656.19;;;3.30;96.38
49459;BME280;35354;51.296;16.924;2023-02-22T05:10:19;99630.69;;;3.16;96.46
49459;BME280;35354;51.296;16.924;2023-02-22T05:12:45;99689.50;;;3.39;96.22
49459;BME280;35354;51.296;16.924;2023-02-22T05:15:15;99664.84;;;3.26;95.94
49459;BME280;35354;51.296;16.924;2023-02-22T05:17:41;99688.63;;;3.40;96.09
49459;BME280;35354;51.296;16.924;2023-02-22T05:20:07;99641.91;;;3.11;96.35
49459;BME280;35354;51.296;16.924;2023-02-22T05:22:33;99686.03;;;3.42;96.09
49459;BME280;35354;51.296;16.924;2023-02-22T05:24:58;99658.78;;;3.29;96.64
49459;BME280;35354;51.296;16.924;2023-02-22T05:27:23;99679.16;;;3.41;97.04
49459;BME280;35354;51.296;16.924;2023-02-22T05:29:49;99688.59;;;3.42;96.93
49459;BME280;35354;51.296;16.924;2023-02-22T05:32:14;99668.25;;;3.27;97.60
49459;BME280;35354;51.296;16.924;2023-02-22T05:34:40;99664.03;;;3.22;98.04
49459;BME280;35354;51.296;16.924;2023-02-22T05:37:05;99691.28;;;3.36;97.64
49459;BME280;35354;51.296;16.924;2023-02-22T05:39:31;99653.91;;;3.13;97.21
49459;BME280;35354;51.296;16.924;2023-02-22T05:41:57;99685.31;;;3.34;97.15
49459;BME280;35354;51.296;16.924;2023-02-22T05:44:23;99676.75;;;3.32;96.75
49459;BME280;35354;51.296;16.924;2023-02-22T05:46:48;99670.84;;;3.27;96.96
49459;BME280;35354;51.296;16.924;2023-02-22T05:49:13;99698.03;;;3.43;97.21
49459;BME280;35354;51.296;16.924;2023-02-22T05:51:39;99702.25;;;3.45;98.35
49459;BME280;35354;51.296;16.924;2023-02-22T05:54:05;99692.91;;;3.41;98.06
49459;BME280;35354;51.296;16.924;2023-02-22T05:56:30;99692.88;;;3.43;98.41
49459;BME280;35354;51.296;16.924;2023-02-22T05:58:56;99675.84;;;3.34;98.70
49459;BME280;35354;51.296;16.924;2023-02-22T06:01:23;99697.91;;;3.50;98.57
49459;BME280;35354;51.296;16.924;2023-02-22T06:03:49;99710.63;;;3.60;98.55
49459;BME280;35354;51.296;16.924;2023-02-22T06:06:16;99709.72;;;3.61;98.34
49459;BME280;35354;51.296;16.924;2023-02-22T06:08:41;99712.25;;;3.64;98.00
49459;BME280;35354;51.296;16.924;2023-02-22T06:11:07;99699.44;;;3.61;97.87
49459;BME280;35354;51.296;16.924;2023-02-22T06:13:34;99714.84;;;3.64;98.29
49459;BME280;35354;51.296;16.924;2023-02-22T06:15:59;99691.03;;;3.51;98.53
49459;BME280;35354;51.296;16.924;2023-02-22T06:18:25;99693.47;;;3.57;98.72
49459;BME280;35354;51.296;16.924;2023-02-22T06:20:51;99727.47;;;3.78;99.17
49459;BME280;35354;51.296;16.924;2023-02-22T06:23:17;99714.63;;;3.74;99.27
49459;BME280;35354;51.296;16.924;2023-02-22T06:25:42;99731.50;;;3.91;99.44
49459;BME280;35354;51.296;16.924;2023-02-22T06:28:07;99730.50;;;3.99;99.21
49459;BME280;35354;51.296;16.924;2023-02-22T06:30:33;99708.28;;;3.94;99.29
49459;BME280;35354;51.296;16.924;2023-02-22T06:32:58;99737.91;;;4.18;99.05
49459;BME280;35354;51.296;16.924;2023-02-22T06:35:23;99707.06;;;4.12;99.04
49459;BME280;35354;51.296;16.924;2023-02-22T06:37:49;99737.56;;;4.35;98.61
49459;BME280;35354;51.296;16.924;2023-02-22T06:40:15;99716.97;;;4.33;98.65
49459;BME280;35354;51.296;16.924;2023-02-22T06:42:40;99717.75;;;4.37;98.22
49459;BME280;35354;51.296;16.924;2023-02-22T06:45:06;99718.34;;;4.49;98.45
49459;BME280;35354;51.296;16.924;2023-02-22T06:47:32;99739.50;;;4.65;98.48
49459;BME280;35354;51.296;16.924;2023-02-22T06:49:58;99716.47;;;4.58;98.52
49459;BME280;35354;51.296;16.924;2023-02-22T06:52:24;99741.84;;;4.76;98.51
49459;BME280;35354;51.296;16.924;2023-02-22T06:54:50;99742.53;;;4.86;98.25
49459;BME280;35354;51.296;16.924;2023-02-22T06:57:16;99722.88;;;4.79;98.68
49459;BME280;35354;51.296;16.924;2023-02-22T06:59:42;99747.41;;;4.98;98.20
49459;BME280;35354;51.296;16.924;2023-02-22T07:02:11;99748.13;;;5.05;98.00
49459;BME280;35354;51.296;16.924;2023-02-22T07:04:37;99703.78;;;4.87;98.12
49459;BME280;35354;51.296;16.924;2023-02-22T07:07:04;99746.88;;;5.22;97.99
49459;BME280;35354;51.296;16.924;2023-02-22T07:09:29;99732.34;;;5.17;98.22
49459;BME280;35354;51.296;16.924;2023-02-22T07:11:54;99749.97;;;5.37;97.78
49459;BME280;35354;51.296;16.924;2023-02-22T07:14:20;99724.31;;;5.29;97.84
49459;BME280;35354;51.296;16.924;2023-02-22T07:16:45;99765.00;;;5.55;98.02
49459;BME280;35354;51.296;16.924;2023-02-22T07:19:10;99754.56;;;5.60;97.65
49459;BME280;35354;51.296;16.924;2023-02-22T07:21:36;99723.91;;;5.46;98.01
49459;BME280;35354;51.296;16.924;2023-02-22T07:24:01;99768.78;;;5.78;98.11
49459;BME280;35354;51.296;16.924;2023-02-22T07:26:26;99767.13;;;5.75;97.50
49459;BME280;35354;51.296;16.924;2023-02-22T07:28:52;99747.41;;;5.71;97.78
49459;BME280;35354;51.296;16.924;2023-02-22T07:31:17;99765.84;;;5.90;97.16
49459;BME280;35354;51.296;16.924;2023-02-22T07:33:45;99777.72;;;6.00;96.82
49459;BME280;35354;51.296;16.924;2023-02-22T07:36:10;99775.78;;;6.07;96.76
49459;BME280;35354;51.296;16.924;2023-02-22T07:38:37;99769.66;;;6.11;95.79
49459;BME280;35354;51.296;16.924;2023-02-22T07:41:03;99774.56;;;6.21;95.76
49459;BME280;35354;51.296;16.924;2023-02-22T07:43:29;99752.13;;;6.22;95.08
49459;BME280;35354;51.296;16.924;2023-02-22T07:45:57;99754.50;;;6.30;93.83
49459;BME280;35354;51.296;16.924;2023-02-22T07:48:24;99770.41;;;6.47;93.53
49459;BME280;35354;51.296;16.924;2023-02-22T07:50:50;99753.47;;;6.37;91.45
49459;BME280;35354;51.296;16.924;2023-02-22T07:53:27;99772.94;;;6.48;91.25
49459;BME280;35354;51.296;16.924;2023-02-22T07:55:55;99733.25;;;6.18;90.34
49459;BME280;35354;51.296;16.924;2023-02-22T07:58:23;99745.22;;;6.22;89.74
49459;BME280;35354;51.296;16.924;2023-02-22T08:00:49;99757.78;;;6.36;88.81
49459;BME280;35354;51.296;16.924;2023-02-22T08:03:16;99771.00;;;6.57;88.49
49459;BME280;35354;51.296;16.924;2023-02-22T08:05:47;99765.03;;;6.55;88.27
49459;BME280;35354;51.296;16.924;2023-02-22T08:08:13;99754.41;;;6.64;87.86
49459;BME280;35354;51.296;16.924;2023-02-22T08:10:40;99761.09;;;6.71;87.86
49459;BME280;35354;51.296;16.924;2023-02-22T08:13:06;99764.47;;;6.73;87.33
49459;BME280;35354;51.296;16.924;2023-02-22T08:15:36;99771.09;;;6.83;86.81
49459;BME280;35354;51.296;16.924;2023-02-22T08:18:07;99764.88;;;6.89;86.56
49459;BME280;35354;51.296;16.924;2023-02-22T08:20:33;99762.00;;;6.99;86.17
49459;BME280;35354;51.296;16.924;2023-02-22T08:22:59;99752.94;;;7.13;85.92
49459;BME280;35354;51.296;16.924;2023-02-22T08:25:27;99764.41;;;7.32;85.50
49459;BME280;35354;51.296;16.924;2023-02-22T08:27:56;99752.44;;;7.30;85.15
49459;BME280;35354;51.296;16.924;2023-02-22T08:30:24;99766.88;;;7.37;84.75
49459;BME280;35354;51.296;16.924;2023-02-22T08:32:50;99762.44;;;7.40;84.51
49459;BME280;35354;51.296;16.924;2023-02-22T08:35:17;99761.28;;;7.49;84.24
49459;BME280;35354;51.296;16.924;2023-02-22T08:37:44;99777.41;;;7.59;83.13
49459;BME280;35354;51.296;16.924;2023-02-22T08:40:11;99763.56;;;7.60;82.78
49459;BME280;35354;51.296;16.924;2023-02-22T08:42:37;99744.72;;;7.55;83.06
49459;BME280;35354;51.296;16.924;2023-02-22T08:45:02;99742.81;;;7.60;82.84
49459;BME280;35354;51.296;16.924;2023-02-22T08:47:28;99770.63;;;7.81;83.00
49459;BME280;35354;51.296;16.924;2023-02-22T08:49:53;99748.03;;;7.85;82.56
49459;BME280;35354;51.296;16.924;2023-02-22T08:52:19;99766.66;;;7.96;82.14
49459;BME280;35354;51.296;16.924;2023-02-22T08:54:45;99765.94;;;7.92;82.07
49459;BME280;35354;51.296;16.924;2023-02-22T08:57:11;99744.28;;;7.93;81.84
49459;BME280;35354;51.296;16.924;2023-02-22T08:59:37;99736.00;;;8.07;81.80
49459;BME280;35354;51.296;16.924;2023-02-22T09:02:02;99755.50;;;8.44;80.30
49459;BME280;35354;51.296;16.924;2023-02-22T09:04:27;99727.72;;;8.21;80.11
49459;BME280;35354;51.296;16.924;2023-02-22T09:06:52;99744.50;;;8.61;79.63
49459;BME280;35354;51.296;16.924;2023-02-22T09:09:18;99717.88;;;8.56;78.72
49459;BME280;35354;51.296;16.924;2023-02-22T09:11:46;99742.34;;;8.72;78.28
49459;BME280;35354;51.296;16.924;2023-02-22T09:14:11;99737.47;;;8.86;78.14
49459;BME280;35354;51.296;16.924;2023-02-22T09:16:38;99746.03;;;9.12;78.22
49459;BME280;35354;51.296;16.924;2023-02-22T09:19:03;99741.75;;;9.31;78.39
49459;BME280;35354;51.296;16.924;2023-02-22T09:21:29;99738.25;;;9.54;77.89
49459;BME280;35354;51.296;16.924;2023-02-22T09:23:55;99746.34;;;9.89;76.79
49459;BME280;35354;51.296;16.924;2023-02-22T09:26:21;99755.72;;;9.93;75.16
49459;BME280;35354;51.296;16.924;2023-02-22T09:28:50;99742.06;;;9.88;73.61
49459;BME280;35354;51.296;16.924;2023-02-22T09:31:16;99754.72;;;9.75;72.04
49459;BME280;35354;51.296;16.924;2023-02-22T09:33:41;99754.19;;;9.67;71.86
49459;BME280;35354;51.296;16.924;2023-02-22T09:36:06;99758.63;;;9.43;71.80
49459;BME280;35354;51.296;16.924;2023-02-22T09:38:32;99762.44;;;9.34;72.58
49459;BME280;35354;51.296;16.924;2023-02-22T09:46:32;99757.75;;;9.44;72.24
49459;BME280;35354;51.296;16.924;2023-02-22T09:49:19;99762.88;;;9.45;72.00
49459;BME280;35354;51.296;16.924;2023-02-22T09:51:56;99762.16;;;9.42;71.63
49459;BME280;35354;51.296;16.924;2023-02-22T09:54:28;99757.38;;;9.53;71.27
49459;BME280;35354;51.296;16.924;2023-02-22T09:57:02;99756.88;;;9.65;72.30
49459;BME280;35354;51.296;16.924;2023-02-22T09:59:34;99758.59;;;9.87;72.90
49459;BME280;35354;51.296;16.924;2023-02-22T10:02:17;99731.53;;;9.91;72.48
49459;BME280;35354;51.296;16.924;2023-02-22T10:07:29;99760.50;;;10.02;70.83
49459;BME280;35354;51.296;16.924;2023-02-22T10:09:58;99751.63;;;10.08;70.39
49459;BME280;35354;51.296;16.924;2023-02-22T10:12:58;99754.88;;;10.13;71.20
49459;BME280;35354;51.296;16.924;2023-02-22T10:26:16;99744.13;;;10.20;65.34
49459;BME280;35354;51.296;16.924;2023-02-22T10:29:09;99736.94;;;9.86;64.77
49459;BME280;35354;51.296;16.924;2023-02-22T10:31:43;99728.72;;;9.75;65.38
49459;BME280;35354;51.296;16.924;2023-02-22T10:34:20;99727.50;;;10.04;65.20
49459;BME280;35354;51.296;16.924;2023-02-22T10:36:50;99736.25;;;10.42;66.14
49459;BME280;35354;51.296;16.924;2023-02-22T10:39:30;99726.00;;;10.58;67.05
49459;BME280;35354;51.296;16.924;2023-02-22T10:42:00;99739.09;;;10.76;66.60
49459;BME280;35354;51.296;16.924;2023-02-22T10:44:34;99738.53;;;10.88;66.09
49459;BME280;35354;51.296;16.924;2023-02-22T10:47:02;99733.41;;;11.04;65.93
49459;BME280;35354;51.296;16.924;2023-02-22T10:49:42;99731.16;;;11.15;65.74
49459;BME280;35354;51.296;16.924;2023-02-22T10:52:33;99729.81;;;11.25;64.90
49459;BME280;35354;51.296;16.924;2023-02-22T10:55:00;99734.09;;;10.71;64.16
49459;BME280;35354;51.296;16.924;2023-02-22T10:57:33;99714.50;;;10.43;64.67
49459;BME280;35354;51.296;16.924;2023-02-22T11:00:19;99732.81;;;10.42;67.20
49459;BME280;35354;51.296;16.924;2023-02-22T11:03:01;99729.22;;;10.63;68.05
49459;BME280;35354;51.296;16.924;2023-02-22T11:05:38;99724.22;;;10.78;67.31
49459;BME280;35354;51.296;16.924;2023-02-22T11:10:39;99725.78;;;10.82;65.91
49459;BME280;35354;51.296;16.924;2023-02-22T11:13:37;99729.03;;;10.68;65.85
49459;BME280;35354;51.296;16.924;2023-02-22T11:21:40;99713.03;;;10.17;66.42
49459;BME280;35354;51.296;16.924;2023-02-22T11:24:08;99709.69;;;9.95;67.63
49459;BME280;35354;51.296;16.924;2023-02-22T11:26:42;99710.50;;;9.95;67.82
49459;BME280;35354;51.296;16.924;2023-02-22T11:29:19;99726.44;;;10.08;68.09
49459;BME280;35354;51.296;16.924;2023-02-22T11:31:45;99706.34;;;9.91;67.93
49459;BME280;35354;51.296;16.924;2023-02-22T11:34:39;99718.25;;;9.77;67.81
49459;BME280;35354;51.296;16.924;2023-02-22T11:42:38;99714.94;;;9.31;68.20
49459;BME280;35354;51.296;16.924;2023-02-22T11:45:18;99713.31;;;9.28;68.60
49459;BME280;35354;51.296;16.924;2023-02-22T11:48:00;99698.69;;;9.04;69.14
49459;BME280;35354;51.296;16.924;2023-02-22T12:01:42;99720.22;;;9.29;68.42
49459;BME280;35354;51.296;16.924;2023-02-22T12:12:54;99684.34;;;8.71;69.65
49459;BME280;35354;51.296;16.924;2023-02-22T12:21:15;99710.13;;;8.99;68.95
49459;BME280;35354;51.296;16.924;2023-02-22T12:23:49;99712.28;;;8.88;68.92
49459;BME280;35354;51.296;16.924;2023-02-22T12:26:29;99691.66;;;8.62;69.54
49459;BME280;35354;51.296;16.924;2023-02-22T12:31:49;99714.84;;;8.90;69.60
49459;BME280;35354;51.296;16.924;2023-02-22T12:40:09;99711.06;;;8.97;69.29
49459;BME280;35354;51.296;16.924;2023-02-22T12:45:52;99711.44;;;9.10;69.59
49459;BME280;35354;51.296;16.924;2023-02-22T12:50:55;99693.22;;;9.11;68.88
49459;BME280;35354;51.296;16.924;2023-02-22T12:53:27;99689.22;;;9.03;68.22
49459;BME280;35354;51.296;16.924;2023-02-22T12:58:39;99705.22;;;8.92;68.06
49459;BME280;35354;51.296;16.924;2023-02-22T13:01:18;99708.06;;;9.08;68.15
49459;BME280;35354;51.296;16.924;2023-02-22T13:03:45;99684.69;;;8.86;67.58
49459;BME280;35354;51.296;16.924;2023-02-22T13:09:04;99711.81;;;9.00;67.82
49459;BME280;35354;51.296;16.924;2023-02-22T13:11:48;99705.41;;;9.09;67.88
49459;BME280;35354;51.296;16.924;2023-02-22T13:22:30;99708.50;;;9.19;68.10
49459;BME280;35354;51.296;16.924;2023-02-22T13:30:40;99706.25;;;9.10;67.94
49459;BME280;35354;51.296;16.924;2023-02-22T13:38:47;99717.50;;;9.10;67.57
49459;BME280;35354;51.296;16.924;2023-02-22T13:41:34;99696.88;;;9.06;67.96
49459;BME280;35354;51.296;16.924;2023-02-22T13:47:16;99680.44;;;9.05;68.20
49459;BME280;35354;51.296;16.924;2023-02-22T13:52:33;99675.44;;;8.79;68.43
49459;BME280;35354;51.296;16.924;2023-02-22T13:55:05;99651.41;;;8.52;68.69
49459;BME280;35354;51.296;16.924;2023-02-22T13:57:43;99680.63;;;8.57;68.74
49459;BME280;35354;51.296;16.924;2023-02-22T14:08:00;99679.00;;;8.76;69.40
49459;BME280;35354;51.296;16.924;2023-02-22T14:13:09;99675.25;;;8.61;68.85
49459;BME280;35354;51.296;16.924;2023-02-22T14:15:35;99673.88;;;8.74;68.83
49459;BME280;35354;51.296;16.924;2023-02-22T14:18:02;99697.13;;;8.99;68.87
49459;BME280;35354;51.296;16.924;2023-02-22T14:20:32;99695.97;;;8.85;68.55
49459;BME280;35354;51.296;16.924;2023-02-22T14:25:50;99703.16;;;8.78;68.46
49459;BME280;35354;51.296;16.924;2023-02-22T14:31:11;99681.44;;;8.81;67.79
49459;BME280;35354;51.296;16.924;2023-02-22T14:33:53;99697.53;;;8.89;67.74
49459;BME280;35354;51.296;16.924;2023-02-22T14:36:20;99662.25;;;8.61;67.90
49459;BME280;35354;51.296;16.924;2023-02-22T14:38:47;99687.03;;;8.70;67.75
49459;BME280;35354;51.296;16.924;2023-02-22T14:41:15;99679.13;;;8.73;67.86
49459;BME280;35354;51.296;16.924;2023-02-22T14:43:41;99689.22;;;8.81;67.23
49459;BME280;35354;51.296;16.924;2023-02-22T14:46:09;99673.13;;;8.71;67.30
49459;BME280;35354;51.296;16.924;2023-02-22T14:48:39;99679.00;;;8.76;67.42
49459;BME280;35354;51.296;16.924;2023-02-22T14:54:02;99668.41;;;8.59;68.24
49459;BME280;35354;51.296;16.924;2023-02-22T14:56:37;99681.66;;;8.74;67.92
49459;BME280;35354;51.296;16.924;2023-02-22T14:59:34;99689.94;;;8.84;67.73
49459;BME280;35354;51.296;16.924;2023-02-22T15:02:04;99682.94;;;8.86;67.61
49459;BME280;35354;51.296;16.924;2023-02-22T15:04:30;99646.31;;;8.70;67.55
49459;BME280;35354;51.296;16.924;2023-02-22T15:06:57;99690.63;;;8.89;67.31
49459;BME280;35354;51.296;16.924;2023-02-22T15:09:26;99686.84;;;8.96;67.38
49459;BME280;35354;51.296;16.924;2023-02-22T15:12:09;99656.31;;;8.81;67.49
49459;BME280;35354;51.296;16.924;2023-02-22T15:14:39;99677.31;;;8.97;68.01
49459;BME280;35354;51.296;16.924;2023-02-22T15:17:17;99656.97;;;8.64;68.43
49459;BME280;35354;51.296;16.924;2023-02-22T15:19:45;99681.72;;;8.73;69.10
49459;BME280;35354;51.296;16.924;2023-02-22T15:22:24;99679.97;;;8.73;69.29
49459;BME280;35354;51.296;16.924;2023-02-22T15:25:06;99656.44;;;8.55;69.74
49459;BME280;35354;51.296;16.924;2023-02-22T15:27:33;99668.00;;;8.47;70.03
49459;BME280;35354;51.296;16.924;2023-02-22T15:30:04;99637.66;;;8.24;70.12
49459;BME280;35354;51.296;16.924;2023-02-22T15:32:32;99675.16;;;8.16;70.83
49459;BME280;35354;51.296;16.924;2023-02-22T15:37:41;99661.44;;;7.89;72.75
49459;BME280;35354;51.296;16.924;2023-02-22T15:40:17;99678.19;;;8.04;73.10
49459;BME280;35354;51.296;16.924;2023-02-22T15:42:51;99681.47;;;8.09;73.00
49459;BME280;35354;51.296;16.924;2023-02-22T15:45:23;99650.69;;;7.99;72.57
49459;BME280;35354;51.296;16.924;2023-02-22T15:47:50;99647.31;;;7.97;72.64